createdAt,value
2023-04-17T00:01:52.211Z,29.73
2023-04-17T00:04:19.081Z,27.05
2023-04-17T00:06:45.816Z,27.67
2023-04-17T00:09:12.876Z,29.17
2023-04-17T00:11:40.741Z,26.10
2023-04-17T00:14:07.520Z,26.52
2023-04-17T00:16:34.650Z,28.20
2023-04-17T00:19:03.306Z,27.13
2023-04-17T00:21:30.333Z,26.60
2023-04-17T00:23:57.383Z,30.10
2023-04-17T00:26:24.415Z,30.20
2023-04-17T00:28:51.241Z,29.25
2023-04-17T00:31:18.030Z,29.95
2023-04-17T00:33:44.775Z,30.10
2023-04-17T00:36:12.842Z,30.02
2023-04-17T00:38:39.563Z,30.60
2023-04-17T00:41:06.315Z,31.73
2023-04-17T00:43:33.124Z,30.00
2023-04-17T00:46:00.225Z,26.83
2023-04-17T00:48:27.054Z,26.98
2023-04-17T00:50:53.770Z,26.02
2023-04-17T00:53:22.606Z,32.65
2023-04-17T00:55:51.859Z,28.15
2023-04-17T00:58:18.846Z,27.30
2023-04-17T01:00:45.673Z,29.10
2023-04-17T01:03:12.861Z,27.55
2023-04-17T01:05:40.308Z,29.45
2023-04-17T01:08:07.318Z,27.40
2023-04-17T01:10:35.401Z,29.77
2023-04-17T01:13:03.038Z,26.02
2023-04-17T01:15:29.837Z,28.80
2023-04-17T01:17:56.720Z,28.85
2023-04-17T01:20:23.954Z,25.80
2023-04-17T01:22:50.689Z,28.27
2023-04-17T01:25:18.956Z,28.17
2023-04-17T01:27:45.753Z,27.73
2023-04-17T01:30:13.643Z,30.08
2023-04-17T01:32:40.518Z,26.70
2023-04-17T01:35:07.800Z,27.85
2023-04-17T01:37:34.538Z,25.88
2023-04-17T01:40:01.458Z,26.33
2023-04-17T01:42:29.595Z,23.48
2023-04-17T01:44:56.350Z,26.63
2023-04-17T01:47:23.469Z,26.13
2023-04-17T01:49:50.291Z,26.98
2023-04-17T01:52:17.038Z,25.15
2023-04-17T01:54:43.864Z,24.55
2023-04-17T01:57:10.563Z,26.48
2023-04-17T01:59:38.746Z,25.13
2023-04-17T02:02:05.774Z,24.25
2023-04-17T02:04:32.803Z,26.00
2023-04-17T02:06:59.569Z,30.30
2023-04-17T02:09:26.457Z,29.70
2023-04-17T02:11:53.196Z,29.70
2023-04-17T02:14:20.981Z,25.77
2023-04-17T02:16:49.015Z,23.00
2023-04-17T02:19:15.685Z,25.88
2023-04-17T02:21:42.430Z,25.90
2023-04-17T02:24:09.229Z,26.98
2023-04-17T02:26:35.917Z,26.40
2023-04-17T02:29:02.811Z,23.80
2023-04-17T02:31:29.552Z,26.42
2023-04-17T02:33:57.720Z,25.20
2023-04-17T02:36:24.571Z,26.35
2023-04-17T02:38:51.257Z,24.00
2023-04-17T02:41:18.019Z,24.00
2023-04-17T02:43:44.825Z,26.70
2023-04-17T02:46:11.568Z,26.05
2023-04-17T02:48:38.321Z,24.17
2023-04-17T02:51:06.484Z,26.67
2023-04-17T02:53:33.291Z,28.88
2023-04-17T02:55:59.990Z,28.98
2023-04-17T02:58:26.861Z,29.40
2023-04-17T03:01:01.557Z,27.42
2023-04-17T03:03:28.531Z,30.13
2023-04-17T03:05:55.425Z,30.33
2023-04-17T03:08:23.548Z,28.02
2023-04-17T03:10:50.242Z,29.88
2023-04-17T03:13:16.935Z,27.07
2023-04-17T03:15:43.629Z,29.52
2023-04-17T03:18:10.417Z,26.98
2023-04-17T03:20:37.082Z,30.73
2023-04-17T03:23:03.977Z,27.17
2023-04-17T03:25:32.069Z,27.20
2023-04-17T03:27:58.780Z,27.75
2023-04-17T03:30:25.557Z,28.13
2023-04-17T03:32:52.359Z,28.35
2023-04-17T03:35:19.368Z,26.10
2023-04-17T03:37:46.250Z,29.23
2023-04-17T03:40:13.104Z,27.75
2023-04-17T03:42:41.259Z,26.98
2023-04-17T03:45:09.340Z,29.25
2023-04-17T03:47:36.058Z,31.83
2023-04-17T03:50:02.815Z,27.87
2023-04-17T03:52:29.486Z,26.13
2023-04-17T03:54:56.210Z,27.50
2023-04-17T03:57:22.936Z,29.65
2023-04-17T03:59:51.063Z,30.20
2023-04-17T04:02:17.839Z,29.88
2023-04-17T04:04:44.658Z,29.40
2023-04-17T04:07:11.399Z,27.42
2023-04-17T04:09:38.131Z,29.40
2023-04-17T04:12:05.157Z,28.37
2023-04-17T04:14:31.879Z,30.23
2023-04-17T04:16:59.929Z,26.38
2023-04-17T04:19:26.831Z,26.63
2023-04-17T04:21:53.629Z,29.08
2023-04-17T04:24:20.478Z,27.48
2023-04-17T04:26:47.760Z,25.15
2023-04-17T04:29:14.557Z,28.73
2023-04-17T04:31:42.110Z,29.60
2023-04-17T04:34:10.370Z,27.98
2023-04-17T04:36:37.047Z,27.55
2023-04-17T04:39:03.812Z,28.03
2023-04-17T04:41:30.555Z,23.52
2023-04-17T04:43:57.250Z,25.27
2023-04-17T04:46:23.972Z,23.80
2023-04-17T04:48:50.665Z,25.52
2023-04-17T04:51:18.996Z,24.80
2023-04-17T04:53:46.095Z,24.23
2023-04-17T04:56:12.849Z,24.08
2023-04-17T04:58:39.582Z,24.88
2023-04-17T05:01:06.409Z,24.90
2023-04-17T05:03:33.346Z,23.90
2023-04-17T05:06:00.209Z,24.23
2023-04-17T05:08:28.275Z,25.38
2023-04-17T05:10:55.198Z,26.08
2023-04-17T05:13:21.975Z,26.98
2023-04-17T05:15:48.770Z,24.85
2023-04-17T05:18:15.521Z,24.05
2023-04-17T05:20:42.236Z,26.48
2023-04-17T05:23:08.977Z,27.27
2023-04-17T05:25:37.108Z,28.00
2023-04-17T05:28:03.908Z,23.73
2023-04-17T05:30:30.671Z,25.38
2023-04-17T05:32:57.460Z,25.50
2023-04-17T05:35:24.353Z,24.20
2023-04-17T05:37:51.340Z,23.23
2023-04-17T05:40:18.328Z,23.75
2023-04-17T05:42:46.395Z,23.05
2023-04-17T05:45:13.362Z,23.08
2023-04-17T05:47:40.215Z,25.48
2023-04-17T05:50:08.254Z,25.60
2023-04-17T05:52:35.658Z,24.00
2023-04-17T05:55:03.326Z,26.50
2023-04-17T05:57:30.080Z,27.13
2023-04-17T05:59:58.095Z,25.92
2023-04-17T06:02:25.069Z,24.52
2023-04-17T06:04:52.161Z,25.90
2023-04-17T06:07:19.130Z,25.60
2023-04-17T06:09:45.866Z,25.33
2023-04-17T06:12:12.560Z,27.10
2023-04-17T06:14:39.251Z,25.73
2023-04-17T06:17:07.308Z,24.43
2023-04-17T06:19:34.051Z,24.05
2023-04-17T06:22:00.724Z,27.27
2023-04-17T06:24:27.410Z,24.92
2023-04-17T06:26:54.137Z,25.37
2023-04-17T06:29:20.817Z,24.58
2023-04-17T06:31:47.503Z,25.33
2023-04-17T06:34:15.563Z,25.17
2023-04-17T06:36:42.281Z,26.38
2023-04-17T06:39:09.013Z,24.90
2023-04-17T06:41:35.745Z,24.90
2023-04-17T06:44:02.477Z,24.73
2023-04-17T06:46:29.202Z,24.17
2023-04-17T06:48:56.009Z,23.27
2023-04-17T06:51:24.108Z,21.60
2023-04-17T06:53:50.837Z,20.13
2023-04-17T06:56:17.496Z,18.87
2023-04-17T06:58:44.395Z,20.63
2023-04-17T07:01:11.797Z,20.95
2023-04-17T07:03:39.346Z,18.88
2023-04-17T07:06:07.069Z,19.73
2023-04-17T07:11:02.343Z,17.85
2023-04-17T07:13:29.075Z,17.13
2023-04-17T07:15:56.159Z,19.20
2023-04-17T07:18:23.710Z,17.77
2023-04-17T07:23:16.953Z,16.58
2023-04-17T07:25:44.999Z,17.07
2023-04-17T07:28:11.716Z,16.70
2023-04-17T07:30:38.396Z,16.87
2023-04-17T07:33:05.170Z,16.67
2023-04-17T07:35:31.913Z,16.30
2023-04-17T07:37:58.603Z,15.13
2023-04-17T07:40:25.349Z,17.07
2023-04-17T07:42:53.394Z,16.52
2023-04-17T07:45:20.089Z,15.70
2023-04-17T07:47:46.831Z,17.97
2023-04-17T07:50:13.827Z,18.52
2023-04-17T07:52:40.598Z,17.85
2023-04-17T07:55:07.855Z,18.20
2023-04-17T07:57:34.538Z,19.67
2023-04-17T08:00:02.718Z,21.27
2023-04-17T08:02:29.564Z,19.67
2023-04-17T08:04:56.409Z,18.85
2023-04-17T08:07:23.160Z,18.00
2023-04-17T08:09:49.878Z,19.40
2023-04-17T08:12:16.635Z,17.27
2023-04-17T08:14:43.354Z,16.17
2023-04-17T08:17:11.546Z,18.00
2023-04-17T08:19:38.263Z,15.98
2023-04-17T08:22:05.317Z,15.00
2023-04-17T08:24:32.097Z,13.32
2023-04-17T08:26:58.835Z,13.82
2023-04-17T08:29:27.129Z,12.70
2023-04-17T08:32:10.409Z,12.27
2023-04-17T08:34:42.085Z,12.38
2023-04-17T08:37:08.779Z,11.40
2023-04-17T08:39:35.511Z,11.90
2023-04-17T08:42:07.076Z,10.43
2023-04-17T08:44:33.844Z,9.77
2023-04-17T08:47:00.546Z,11.82
2023-04-17T08:49:28.819Z,9.93
2023-04-17T08:51:56.866Z,10.45
2023-04-17T08:54:23.602Z,10.95
2023-04-17T08:56:50.352Z,9.70
2023-04-17T08:59:17.067Z,10.90
2023-04-17T09:02:02.473Z,10.57
2023-04-17T09:04:37.581Z,11.63
2023-04-17T09:07:06.207Z,10.85
2023-04-17T09:09:49.591Z,10.82
2023-04-17T09:12:16.850Z,10.20
2023-04-17T09:14:43.593Z,10.55
2023-04-17T09:17:10.322Z,10.33
2023-04-17T09:19:37.183Z,10.50
2023-04-17T09:22:21.454Z,10.38
2023-04-17T09:24:48.388Z,10.75
2023-04-17T09:27:22.721Z,11.50
2023-04-17T09:29:56.834Z,12.02
2023-04-17T09:32:24.020Z,10.70
2023-04-17T09:34:50.836Z,11.10
2023-04-17T09:37:17.540Z,10.38
2023-04-17T09:39:57.310Z,11.90
2023-04-17T09:42:24.297Z,9.48
2023-04-17T09:44:51.052Z,9.95
2023-04-17T09:47:18.292Z,10.43
2023-04-17T09:49:46.978Z,10.90
2023-04-17T09:52:14.236Z,10.45
2023-04-17T09:54:41.412Z,9.00
2023-04-17T09:57:10.439Z,9.45
2023-04-17T09:59:39.144Z,9.02
2023-04-17T10:02:08.171Z,8.40
2023-04-17T10:04:35.420Z,8.05
2023-04-17T10:07:02.319Z,7.35
2023-04-17T10:09:29.016Z,8.25
2023-04-17T10:11:56.685Z,6.40
2023-04-17T10:14:27.581Z,6.68
2023-04-17T10:16:54.546Z,7.07
2023-04-17T10:19:28.274Z,7.18
2023-04-17T10:22:29.183Z,7.18
2023-04-17T10:25:17.215Z,7.22
2023-04-17T10:27:44.797Z,6.43
2023-04-17T10:32:41.641Z,7.68
2023-04-17T10:35:35.632Z,8.32
2023-04-17T10:38:05.166Z,7.85
2023-04-17T10:40:33.902Z,7.28
2023-04-17T10:43:06.048Z,7.05
2023-04-17T10:45:57.310Z,6.90
2023-04-17T10:48:28.747Z,6.40
2023-04-17T10:50:56.394Z,5.43
2023-04-17T10:56:06.383Z,6.20
2023-04-17T10:58:33.511Z,5.90
2023-04-17T11:01:09.949Z,5.50
2023-04-17T11:03:36.900Z,6.30
2023-04-17T11:06:05.077Z,5.80
2023-04-17T11:08:31.926Z,6.80
2023-04-17T11:10:58.622Z,7.78
2023-04-17T11:13:25.390Z,7.87
2023-04-17T11:15:52.114Z,7.60
2023-04-17T11:18:22.209Z,8.57
2023-04-17T11:20:49.056Z,8.95
2023-04-17T11:23:16.330Z,9.73
2023-04-17T11:25:44.261Z,9.75
2023-04-17T11:28:11.865Z,9.48
2023-04-17T11:33:07.440Z,9.65
2023-04-17T11:35:37.332Z,10.43
2023-04-17T11:38:09.552Z,7.88
2023-04-17T11:40:36.282Z,8.05
2023-04-17T11:43:07.132Z,6.87
2023-04-17T11:45:34.570Z,7.03
2023-04-17T11:50:29.047Z,4.93
2023-04-17T11:52:58.224Z,3.92
2023-04-17T11:55:25.049Z,4.80
2023-04-17T11:57:51.836Z,4.10
2023-04-17T12:00:19.632Z,3.80
2023-04-17T12:02:46.483Z,4.20
2023-04-17T12:05:13.907Z,3.75
2023-04-17T12:07:40.835Z,3.83
2023-04-17T12:10:09.736Z,3.60
2023-04-17T12:12:36.602Z,3.70
2023-04-17T12:15:03.494Z,3.35
2023-04-17T12:17:30.356Z,3.35
2023-04-17T12:19:57.073Z,3.85
2023-04-17T12:22:23.896Z,3.50
2023-04-17T12:24:50.699Z,3.35
2023-04-17T12:27:18.809Z,4.32
2023-04-17T12:29:45.568Z,4.70
2023-04-17T12:32:12.423Z,4.68
2023-04-17T12:34:39.391Z,5.43
2023-04-17T12:40:35.197Z,6.15
2023-04-17T12:43:03.221Z,5.13
2023-04-17T12:45:29.968Z,6.10
2023-04-17T12:47:56.727Z,7.40
2023-04-17T12:50:23.875Z,6.55
2023-04-17T12:52:50.701Z,7.65
2023-04-17T12:55:17.418Z,7.75
2023-04-17T12:57:44.105Z,7.30
2023-04-17T13:00:13.380Z,7.67
2023-04-17T13:02:40.745Z,7.32
2023-04-17T13:07:34.551Z,7.25
2023-04-17T13:10:01.287Z,8.85
2023-04-17T13:12:27.992Z,8.27
2023-04-17T13:14:54.646Z,8.93
2023-04-17T13:17:22.881Z,9.90
2023-04-17T13:19:49.763Z,8.45
2023-04-17T13:22:16.470Z,8.38
2023-04-17T13:24:43.258Z,7.90
2023-04-17T13:27:09.984Z,7.90
2023-04-17T13:29:36.764Z,8.13
2023-04-17T13:32:03.666Z,7.13
2023-04-17T13:34:31.722Z,7.50
2023-04-17T13:36:58.401Z,7.38
2023-04-17T13:39:25.244Z,7.50
2023-04-17T13:41:51.925Z,7.45
2023-04-17T13:44:18.606Z,6.50
2023-04-17T13:46:45.390Z,6.67
2023-04-17T13:49:12.475Z,6.50
2023-04-17T13:51:40.716Z,5.90
2023-04-17T13:54:08.401Z,6.82
2023-04-17T13:56:35.071Z,6.95
2023-04-17T13:59:02.801Z,6.30
2023-04-17T14:01:29.494Z,6.80
2023-04-17T14:03:56.364Z,7.10
2023-04-17T14:06:23.307Z,7.32
2023-04-17T14:08:51.374Z,6.75
2023-04-17T14:11:18.038Z,7.93
2023-04-17T14:13:44.720Z,8.03
2023-04-17T14:16:12.023Z,7.50
2023-04-17T14:18:38.806Z,8.38
2023-04-17T14:21:05.602Z,9.13
2023-04-17T14:23:32.538Z,8.77
2023-04-17T19:03:59.731Z,3.63
2023-04-17T19:06:26.489Z,4.60
2023-04-17T19:08:53.197Z,3.87
2023-04-17T19:11:20.275Z,3.93
2023-04-17T19:13:47.141Z,3.30
2023-04-17T19:16:13.864Z,4.20
2023-04-17T19:18:41.658Z,4.03
2023-04-17T19:21:09.699Z,3.40
2023-04-17T19:23:36.856Z,4.05
2023-04-17T19:26:03.604Z,3.80
2023-04-17T19:28:30.326Z,3.72
2023-04-17T19:30:57.012Z,3.38
2023-04-17T19:33:23.882Z,4.07
2023-04-17T19:35:50.823Z,3.58
2023-04-17T19:38:18.842Z,4.13
2023-04-17T19:40:47.050Z,3.90
2023-04-17T19:43:13.776Z,3.40
2023-04-17T19:45:40.499Z,3.77
2023-04-17T19:48:07.293Z,4.17
2023-04-17T19:50:34.003Z,4.45
2023-04-17T19:53:00.705Z,4.13
2023-04-17T19:55:28.860Z,3.75
2023-04-17T19:57:55.674Z,3.72
2023-04-17T20:00:22.398Z,3.22
2023-04-17T20:02:49.232Z,3.83
2023-04-17T20:05:16.112Z,5.05
2023-04-17T20:07:42.814Z,3.77
2023-04-17T20:10:10.230Z,4.03
2023-04-17T20:15:05.501Z,4.75
2023-04-17T20:17:32.222Z,5.72
2023-04-17T20:19:58.985Z,4.72
2023-04-17T20:22:25.735Z,5.35
2023-04-17T20:24:52.452Z,5.63
2023-04-17T20:27:19.162Z,5.07
2023-04-17T20:29:47.242Z,5.07
2023-04-17T20:32:13.971Z,4.97
2023-04-17T20:34:40.682Z,5.50
2023-04-17T20:37:07.443Z,5.73
2023-04-17T20:39:34.100Z,6.13
2023-04-17T20:42:00.811Z,7.63
2023-04-17T20:44:27.579Z,5.63
2023-04-17T20:46:55.576Z,6.72
2023-04-17T20:49:22.279Z,5.88
2023-04-17T20:51:48.945Z,7.07
2023-04-17T20:54:15.862Z,7.90
2023-04-17T20:56:43.310Z,7.68
2023-04-17T20:59:10.449Z,7.43
2023-04-17T21:01:37.207Z,7.68
2023-04-17T21:04:05.378Z,7.43
2023-04-17T21:06:32.092Z,7.55
2023-04-17T21:08:58.794Z,7.43
2023-04-17T21:11:25.743Z,9.48
2023-04-17T21:13:53.040Z,8.30
2023-04-17T21:16:19.813Z,8.70
2023-04-17T21:18:46.580Z,8.88
2023-04-17T21:21:14.640Z,9.80
2023-04-17T21:23:41.376Z,10.45
2023-04-17T21:26:08.194Z,10.95
2023-04-17T21:28:36.387Z,11.13
2023-04-17T21:31:03.116Z,10.70
2023-04-17T21:33:29.806Z,10.97
2023-04-17T21:35:56.481Z,10.73
2023-04-17T21:38:24.519Z,11.30
2023-04-17T21:40:51.743Z,11.45
2023-04-17T21:43:18.605Z,12.20
2023-04-17T21:45:45.369Z,12.63
2023-04-17T21:48:14.015Z,13.48
2023-04-17T21:50:40.716Z,12.23
2023-04-17T21:53:07.525Z,12.70
2023-04-17T21:55:35.829Z,13.65
2023-04-17T21:58:02.512Z,12.95
2023-04-17T22:00:29.255Z,13.93
2023-04-17T22:02:56.088Z,13.30
2023-04-17T22:05:22.887Z,13.57
2023-04-17T22:07:54.820Z,12.30
2023-04-17T22:10:22.916Z,13.57
2023-04-17T22:12:51.042Z,13.23
2023-04-17T22:15:17.947Z,13.10
2023-04-17T22:17:44.671Z,15.75
2023-04-17T22:20:12.385Z,14.48
2023-04-17T22:22:39.124Z,13.75
2023-04-17T22:25:06.470Z,13.75
2023-04-17T22:27:33.205Z,14.50
2023-04-17T22:30:01.365Z,13.73
2023-04-17T22:32:28.131Z,14.20
2023-04-17T22:34:54.832Z,17.27
2023-04-17T22:37:21.523Z,16.20
2023-04-17T22:39:48.965Z,15.83
2023-04-17T22:44:42.195Z,15.27
2023-04-17T22:47:10.238Z,14.93
2023-04-17T22:49:36.935Z,16.35
2023-04-17T22:52:04.487Z,17.03
2023-04-17T22:56:57.708Z,16.60
2023-04-17T22:59:24.415Z,15.00
2023-04-17T23:01:51.352Z,17.40
2023-04-17T23:04:20.201Z,19.02
2023-04-17T23:06:46.907Z,16.48
2023-04-17T23:09:13.615Z,17.23
2023-04-17T23:11:40.520Z,18.00
2023-04-17T23:14:07.313Z,17.70
2023-04-17T23:16:34.053Z,16.55
2023-04-17T23:19:00.748Z,18.10
